Time;durP1;ratioP1;P1;durP2;ratioP2;P2;SDS_P1;SDS_P2;PMS_P1;PMS_P2;Temp;Humidity;BMP_temperature;BMP_pressure;BME280_temperature;BME280_humidity;BME280_pressure;Samples;Min_cycle;Max_cycle;Signal;HPM_P1;HPM_P2
2023/08/28 00:02:26;;;;;;;4.30;1.83;;;;;;;;;;5072639;28;20166;-71
2023/08/28 00:05:12;;;;;;;2.15;1.42;;;;;;;;;;5057289;28;20029;-69
2023/08/28 00:07:57;;;;;;;3.78;1.50;;;;;;;;;;5071900;28;20395;-70
2023/08/28 00:10:43;;;;;;;3.85;1.38;;;;;;;;;;5072635;28;20106;-70
2023/08/28 00:13:29;;;;;;;2.20;1.27;;;;;;;;;;5072651;28;20067;-72
2023/08/28 00:16:14;;;;;;;3.38;1.33;;;;;;;;;;5072333;28;20111;-75
2023/08/28 00:19:00;;;;;;;4.50;2.13;;;;;;;;;;5071875;28;20017;-75
2023/08/28 00:21:45;;;;;;;4.57;1.73;;;;;;;;;;5072223;28;20033;-74
2023/08/28 00:24:31;;;;;;;3.72;1.33;;;;;;;;;;5072540;28;20578;-74
2023/08/28 00:27:16;;;;;;;8.20;1.95;;;;;;;;;;5071484;28;20039;-76
2023/08/28 00:30:03;;;;;;;2.15;1.52;;;;;;;;;;5076865;28;20446;-71
2023/08/28 00:32:49;;;;;;;5.03;1.58;;;;;;;;;;5062075;28;20035;-71
2023/08/28 00:35:34;;;;;;;3.22;1.30;;;;;;;;;;5075688;28;20033;-67
2023/08/28 00:38:20;;;;;;;3.85;1.45;;;;;;;;;;5077207;28;20036;-67
2023/08/28 00:41:05;;;;;;;4.03;1.30;;;;;;;;;;5076381;28;20486;-67
2023/08/28 00:43:51;;;;;;;3.38;1.75;;;;;;;;;;5076323;28;20032;-66
2023/08/28 00:46:36;;;;;;;1.90;1.20;;;;;;;;;;5075645;28;20079;-68
2023/08/28 00:49:22;;;;;;;2.92;1.30;;;;;;;;;;5075803;28;20021;-67
2023/08/28 00:52:08;;;;;;;2.67;1.45;;;;;;;;;;5075193;28;20545;-72
2023/08/28 00:54:54;;;;;;;1.77;1.40;;;;;;;;;;5076067;28;20028;-72
2023/08/28 00:57:39;;;;;;;2.67;1.27;;;;;;;;;;5076104;28;20028;-71
2023/08/28 01:00:25;;;;;;;2.42;1.35;;;;;;;;;;5076069;28;20360;-72
2023/08/28 01:03:11;;;;;;;3.80;1.70;;;;;;;;;;5074544;28;20029;-71
2023/08/28 01:05:56;;;;;;;4.93;1.30;;;;;;;;;;5062171;28;20071;-71
2023/08/28 01:08:48;;;;;;;2.30;1.58;;;;;;;;;;5075252;28;20040;-69
2023/08/28 01:11:35;;;;;;;3.65;1.48;;;;;;;;;;5075364;28;20029;-67
2023/08/28 01:14:28;;;;;;;4.13;1.40;;;;;;;;;;5074525;28;20036;-67
2023/08/28 01:17:14;;;;;;;2.35;1.30;;;;;;;;;;5075511;28;20440;-67
2023/08/28 01:20:00;;;;;;;5.07;1.70;;;;;;;;;;5075480;28;20127;-67
2023/08/28 01:22:52;;;;;;;2.30;1.40;;;;;;;;;;5075505;28;20091;-67
2023/08/28 01:25:39;;;;;;;4.38;2.05;;;;;;;;;;5074503;28;20071;-71
2023/08/28 01:28:25;;;;;;;3.95;1.23;;;;;;;;;;5075486;28;20028;-71
2023/08/28 01:31:11;;;;;;;4.18;1.80;;;;;;;;;;5073533;28;20043;-70
2023/08/28 01:33:56;;;;;;;2.67;1.40;;;;;;;;;;5074053;28;20036;-71
2023/08/28 01:36:52;;;;;;;6.25;1.95;;;;;;;;;;5074124;28;20087;-71
2023/08/28 01:39:41;;;;;;;6.00;1.52;;;;;;;;;;5073565;28;20032;-71
2023/08/28 01:42:28;;;;;;;3.33;1.30;;;;;;;;;;5075117;28;20580;-71
2023/08/28 01:45:15;;;;;;;2.28;1.40;;;;;;;;;;5073846;28;20391;-66
2023/08/28 01:48:00;;;;;;;3.28;1.60;;;;;;;;;;5074502;28;20104;-71
2023/08/28 01:50:46;;;;;;;5.25;1.50;;;;;;;;;;5060352;28;20066;-71
2023/08/28 01:53:31;;;;;;;3.85;1.40;;;;;;;;;;5074285;28;20551;-70
2023/08/28 01:56:24;;;;;;;6.20;1.58;;;;;;;;;;5075061;28;20115;-72
2023/08/28 01:59:09;;;;;;;4.15;1.63;;;;;;;;;;5073012;28;20064;-71
2023/08/28 02:01:55;;;;;;;3.72;1.40;;;;;;;;;;5059470;28;20040;-70
2023/08/28 02:04:41;;;;;;;3.88;1.23;;;;;;;;;;5073684;28;20111;-76
2023/08/28 02:07:26;;;;;;;2.25;1.50;;;;;;;;;;5074699;28;20116;-71
2023/08/28 02:10:12;;;;;;;6.05;1.42;;;;;;;;;;5074887;28;20033;-70
2023/08/28 02:12:57;;;;;;;2.88;1.35;;;;;;;;;;5074675;28;20037;-71
2023/08/28 02:15:43;;;;;;;2.40;1.30;;;;;;;;;;5074757;28;20032;-70
2023/08/28 02:18:30;;;;;;;4.93;1.70;;;;;;;;;;5074489;28;20036;-70
2023/08/28 02:21:15;;;;;;;4.40;1.50;;;;;;;;;;5060044;28;20035;-74
2023/08/28 02:24:01;;;;;;;3.33;1.83;;;;;;;;;;5073955;28;20040;-67
2023/08/28 02:26:46;;;;;;;2.75;1.40;;;;;;;;;;5074344;28;20072;-66
2023/08/28 02:29:32;;;;;;;3.17;1.20;;;;;;;;;;5074139;28;20047;-66
2023/08/28 02:32:17;;;;;;;4.60;1.55;;;;;;;;;;5074252;28;20142;-68
2023/08/28 02:35:03;;;;;;;8.32;2.00;;;;;;;;;;5073273;28;20036;-66
2023/08/28 02:37:49;;;;;;;2.70;1.27;;;;;;;;;;5073319;28;20387;-67
2023/08/28 02:40:36;;;;;;;5.32;1.50;;;;;;;;;;5074074;28;20029;-76
2023/08/28 02:43:21;;;;;;;2.88;1.45;;;;;;;;;;5073833;28;20379;-69
2023/08/28 02:46:07;;;;;;;5.15;1.33;;;;;;;;;;5074136;28;20027;-70
2023/08/28 02:48:52;;;;;;;2.20;1.30;;;;;;;;;;5073317;28;20036;-69
2023/08/28 02:51:38;;;;;;;5.68;1.55;;;;;;;;;;5058094;28;20028;-70
2023/08/28 02:54:24;;;;;;;2.55;1.58;;;;;;;;;;5073036;28;20029;-70
2023/08/28 02:57:09;;;;;;;3.95;1.25;;;;;;;;;;5073958;28;20086;-71
2023/08/28 02:59:55;;;;;;;2.03;1.30;;;;;;;;;;5073877;28;20017;-76
2023/08/28 03:02:40;;;;;;;5.45;1.58;;;;;;;;;;5058016;28;20463;-71
2023/08/28 03:05:26;;;;;;;1.73;1.17;;;;;;;;;;5073031;28;20037;-72
2023/08/28 03:08:11;;;;;;;1.60;1.45;;;;;;;;;;5072693;28;20060;-72
2023/08/28 03:10:57;;;;;;;4.97;1.60;;;;;;;;;;5072953;28;20070;-71
2023/08/28 03:13:42;;;;;;;6.47;1.55;;;;;;;;;;5071696;28;20078;-71
2023/08/28 03:16:28;;;;;;;4.00;1.55;;;;;;;;;;5058422;28;20028;-74
2023/08/28 03:19:14;;;;;;;3.15;1.48;;;;;;;;;;5057825;28;20059;-71
2023/08/28 03:22:00;;;;;;;4.32;1.65;;;;;;;;;;5073258;28;20037;-72
2023/08/28 03:24:46;;;;;;;5.88;1.48;;;;;;;;;;5072636;28;20031;-71
2023/08/28 03:27:32;;;;;;;4.65;1.38;;;;;;;;;;5072238;28;20036;-71
2023/08/28 03:30:18;;;;;;;1.55;1.08;;;;;;;;;;5072559;28;20522;-72
2023/08/28 03:33:04;;;;;;;2.97;1.40;;;;;;;;;;5072588;28;20025;-71
2023/08/28 03:35:49;;;;;;;3.08;1.92;;;;;;;;;;5071693;28;20106;-66
2023/08/28 03:38:35;;;;;;;3.15;1.40;;;;;;;;;;5072598;28;20040;-75
2023/08/28 03:41:22;;;;;;;2.17;1.52;;;;;;;;;;5072282;28;20166;-74
2023/08/28 03:44:08;;;;;;;5.25;1.45;;;;;;;;;;5071576;28;20032;-74
2023/08/28 03:46:53;;;;;;;2.70;1.13;;;;;;;;;;5071148;28;20073;-75
2023/08/28 03:49:39;;;;;;;2.30;1.45;;;;;;;;;;5072431;28;20036;-74
2023/08/28 03:52:25;;;;;;;4.93;1.38;;;;;;;;;;5071712;28;20020;-67
2023/08/28 03:55:10;;;;;;;3.53;1.30;;;;;;;;;;5072036;28;20036;-74
2023/08/28 03:57:57;;;;;;;2.17;1.40;;;;;;;;;;5071922;28;20032;-73
2023/08/28 04:00:43;;;;;;;5.38;1.45;;;;;;;;;;5072062;28;20035;-71
2023/08/28 04:03:28;;;;;;;4.47;1.65;;;;;;;;;;5070999;28;20028;-71
2023/08/28 04:06:14;;;;;;;4.30;1.65;;;;;;;;;;5072068;28;20067;-71
2023/08/28 04:08:59;;;;;;;2.22;1.30;;;;;;;;;;5072684;28;20427;-72
2023/08/28 04:11:45;;;;;;;3.88;1.40;;;;;;;;;;5071500;28;20029;-66
2023/08/28 04:14:32;;;;;;;4.47;1.40;;;;;;;;;;5072436;28;20029;-70
2023/08/28 04:17:17;;;;;;;2.33;1.30;;;;;;;;;;5070782;28;20487;-71
2023/08/28 04:20:12;;;;;;;3.60;1.70;;;;;;;;;;5072179;28;20021;-69
2023/08/28 04:22:58;;;;;;;3.08;1.25;;;;;;;;;;5072584;28;20471;-70
2023/08/28 04:25:43;;;;;;;2.90;1.20;;;;;;;;;;5072533;28;20032;-70
2023/08/28 04:28:29;;;;;;;4.30;1.77;;;;;;;;;;5072757;28;20025;-70
2023/08/28 04:31:15;;;;;;;2.97;1.40;;;;;;;;;;5071470;28;20454;-66
2023/08/28 04:34:00;;;;;;;2.72;1.50;;;;;;;;;;5071744;28;20036;-71
2023/08/28 04:36:47;;;;;;;3.63;1.65;;;;;;;;;;5070847;28;20347;-71
2023/08/28 04:39:33;;;;;;;3.05;1.30;;;;;;;;;;5056815;28;20487;-71
2023/08/28 04:42:19;;;;;;;4.00;1.50;;;;;;;;;;5071558;28;20036;-73
2023/08/28 04:45:05;;;;;;;1.70;1.35;;;;;;;;;;5072314;28;20041;-72
2023/08/28 04:47:50;;;;;;;6.18;1.80;;;;;;;;;;5071578;28;20035;-68
2023/08/28 04:50:36;;;;;;;4.82;1.63;;;;;;;;;;5072733;28;20029;-66
2023/08/28 04:53:21;;;;;;;6.13;1.73;;;;;;;;;;5071677;28;20154;-68
2023/08/28 04:56:07;;;;;;;5.50;1.92;;;;;;;;;;5072107;28;20369;-68
2023/08/28 04:58:52;;;;;;;2.72;1.73;;;;;;;;;;5056415;28;20037;-67
2023/08/28 05:01:38;;;;;;;3.78;1.30;;;;;;;;;;5071798;28;20082;-67
2023/08/28 05:04:24;;;;;;;2.85;1.40;;;;;;;;;;5070859;28;20020;-67
2023/08/28 05:07:11;;;;;;;3.90;1.85;;;;;;;;;;5071628;28;20028;-72
2023/08/28 05:09:56;;;;;;;2.50;1.73;;;;;;;;;;5070130;28;20464;-72
2023/08/28 05:12:42;;;;;;;2.55;1.40;;;;;;;;;;5070885;28;20107;-71
2023/08/28 05:15:27;;;;;;;2.15;1.52;;;;;;;;;;5074986;28;20075;-71
2023/08/28 05:18:13;;;;;;;4.88;1.85;;;;;;;;;;5076072;28;20375;-71
2023/08/28 05:20:59;;;;;;;2.20;1.70;;;;;;;;;;5074965;28;20056;-72
2023/08/28 05:23:44;;;;;;;3.95;1.60;;;;;;;;;;5074947;28;20086;-71
2023/08/28 05:26:30;;;;;;;6.80;2.35;;;;;;;;;;5074970;28;20379;-65
2023/08/28 05:29:15;;;;;;;3.30;1.55;;;;;;;;;;5075960;28;20025;-72
2023/08/28 05:32:01;;;;;;;3.63;1.90;;;;;;;;;;5074513;28;20384;-72
2023/08/28 05:34:46;;;;;;;4.90;1.63;;;;;;;;;;5075200;28;20047;-72
2023/08/28 05:37:32;;;;;;;3.65;1.83;;;;;;;;;;5074543;28;20028;-73
2023/08/28 05:40:17;;;;;;;3.88;2.13;;;;;;;;;;5075250;28;20139;-73
2023/08/28 05:43:03;;;;;;;4.53;2.13;;;;;;;;;;5074457;28;20426;-72
2023/08/28 05:45:49;;;;;;;5.18;2.38;;;;;;;;;;5075338;28;20047;-66
2023/08/28 05:48:34;;;;;;;4.18;2.45;;;;;;;;;;5073050;28;20454;-64
2023/08/28 05:51:20;;;;;;;4.57;2.05;;;;;;;;;;5074719;28;20167;-68
2023/08/28 05:54:05;;;;;;;11.10;3.30;;;;;;;;;;5059461;28;20032;-66
2023/08/28 05:56:51;;;;;;;4.10;2.30;;;;;;;;;;5073539;28;20111;-65
2023/08/28 05:59:37;;;;;;;6.07;1.65;;;;;;;;;;5074636;28;20147;-66
2023/08/28 06:02:22;;;;;;;5.90;2.30;;;;;;;;;;5073242;28;20033;-66
2023/08/28 06:05:08;;;;;;;2.92;2.00;;;;;;;;;;5073986;28;20032;-85
2023/08/28 06:07:54;;;;;;;4.25;1.95;;;;;;;;;;5074199;28;20036;-85
2023/08/28 06:10:40;;;;;;;4.43;1.83;;;;;;;;;;5073449;28;20492;-84
2023/08/28 06:13:26;;;;;;;4.75;1.95;;;;;;;;;;5058197;28;20024;-84
2023/08/28 06:16:11;;;;;;;5.38;2.03;;;;;;;;;;5075145;28;20135;-82
2023/08/28 06:18:57;;;;;;;4.15;2.47;;;;;;;;;;5075056;28;20444;-81
2023/08/28 06:21:44;;;;;;;4.35;2.53;;;;;;;;;;5074205;28;20119;-67
2023/08/28 06:24:31;;;;;;;6.40;2.58;;;;;;;;;;5072406;28;20490;-72
2023/08/28 06:27:17;;;;;;;5.00;3.20;;;;;;;;;;5073063;28;20032;-73
2023/08/28 06:30:06;;;;;;;6.47;3.20;;;;;;;;;;5057963;28;20098;-73
2023/08/28 06:32:52;;;;;;;4.40;3.13;;;;;;;;;;5074007;28;20029;-72
2023/08/28 06:35:38;;;;;;;6.60;3.00;;;;;;;;;;5073122;28;20410;-71
2023/08/28 06:38:23;;;;;;;6.22;3.00;;;;;;;;;;5074473;28;20067;-74
2023/08/28 06:41:09;;;;;;;4.50;2.80;;;;;;;;;;5073747;28;20032;-64
2023/08/28 06:43:54;;;;;;;11.65;3.33;;;;;;;;;;5073067;28;20039;-66
2023/08/28 06:46:40;;;;;;;6.47;2.95;;;;;;;;;;5073430;28;20028;-69
2023/08/28 06:49:25;;;;;;;6.50;3.35;;;;;;;;;;5074180;28;20032;-68
2023/08/28 06:52:11;;;;;;;4.80;2.75;;;;;;;;;;5074394;28;20123;-68
2023/08/28 06:54:57;;;;;;;5.63;3.15;;;;;;;;;;5073419;28;20036;-68
2023/08/28 06:57:42;;;;;;;5.53;3.58;;;;;;;;;;5073528;28;20033;-74
2023/08/28 07:00:28;;;;;;;7.15;3.28;;;;;;;;;;5074440;28;20387;-72
2023/08/28 07:03:13;;;;;;;6.30;3.70;;;;;;;;;;5074313;28;20036;-71
2023/08/28 07:05:59;;;;;;;4.25;2.80;;;;;;;;;;5073195;28;20024;-72
2023/08/28 07:08:44;;;;;;;7.78;4.03;;;;;;;;;;5073840;28;20479;-72
2023/08/28 07:11:30;;;;;;;9.55;3.90;;;;;;;;;;5058424;28;20021;-73
2023/08/28 07:14:15;;;;;;;6.68;3.22;;;;;;;;;;5072722;28;20408;-74
2023/08/28 07:17:01;;;;;;;5.22;3.25;;;;;;;;;;5058338;28;20034;-76
2023/08/28 07:19:47;;;;;;;6.35;3.47;;;;;;;;;;5057478;28;20027;-73
2023/08/28 07:22:33;;;;;;;4.88;3.20;;;;;;;;;;5072800;28;20518;-73
2023/08/28 07:25:21;;;;;;;5.38;3.10;;;;;;;;;;5057515;28;20028;-72
2023/08/28 07:28:09;;;;;;;5.87;3.10;;;;;;;;;;5072183;28;20021;-73
2023/08/28 07:30:57;;;;;;;5.65;2.72;;;;;;;;;;5071958;28;20251;-73
2023/08/28 07:33:43;;;;;;;3.58;2.60;;;;;;;;;;5057883;28;20036;-73
2023/08/28 07:39:04;;;;;;;5.05;2.80;;;;;;;;;;5025282;28;20118;-73
2023/08/28 07:41:50;;;;;;;4.72;3.08;;;;;;;;;;5010899;28;20060;-74
2023/08/28 07:44:35;;;;;;;5.15;2.60;;;;;;;;;;5005411;28;20119;-72
2023/08/28 07:47:20;;;;;;;4.95;2.88;;;;;;;;;;5011290;28;20436;-73
2023/08/28 07:50:05;;;;;;;5.80;2.85;;;;;;;;;;5011731;28;20029;-74
2023/08/28 07:52:51;;;;;;;6.05;2.80;;;;;;;;;;5025708;28;20530;-74
2023/08/28 07:55:37;;;;;;;7.07;3.60;;;;;;;;;;5035671;28;20476;-74
2023/08/28 07:58:22;;;;;;;6.25;2.90;;;;;;;;;;5012895;28;20076;-73
2023/08/28 08:01:08;;;;;;;5.32;2.92;;;;;;;;;;5016732;28;20543;-73
2023/08/28 08:03:53;;;;;;;6.68;2.78;;;;;;;;;;5011835;28;20043;-74
2023/08/28 08:06:39;;;;;;;8.07;2.80;;;;;;;;;;5011330;28;20530;-73
2023/08/28 08:09:24;;;;;;;3.55;2.58;;;;;;;;;;5007628;28;20029;-72
2023/08/28 08:12:09;;;;;;;7.00;2.58;;;;;;;;;;5013402;28;20029;-76
2023/08/28 08:14:54;;;;;;;7.22;2.58;;;;;;;;;;5021645;28;20041;-71
2023/08/28 08:17:40;;;;;;;5.00;2.47;;;;;;;;;;5007196;28;20029;-73
2023/08/28 08:20:25;;;;;;;8.55;3.15;;;;;;;;;;5007978;28;20039;-65
2023/08/28 08:23:10;;;;;;;3.53;2.58;;;;;;;;;;5000333;28;20040;-66
2023/08/28 08:25:55;;;;;;;6.32;2.42;;;;;;;;;;5009952;28;20036;-65
2023/08/28 08:28:41;;;;;;;3.45;2.38;;;;;;;;;;5011691;28;20044;-74
2023/08/28 08:31:26;;;;;;;3.35;2.33;;;;;;;;;;5013774;28;20048;-75
2023/08/28 08:34:11;;;;;;;3.55;2.13;;;;;;;;;;5015451;28;20060;-71
2023/08/28 08:36:56;;;;;;;4.13;2.25;;;;;;;;;;5014294;28;20809;-72
2023/08/28 08:39:42;;;;;;;6.30;2.60;;;;;;;;;;5022073;28;20037;-71
2023/08/28 08:42:27;;;;;;;6.03;2.55;;;;;;;;;;5020365;28;20041;-70
2023/08/28 08:45:12;;;;;;;2.25;2.05;;;;;;;;;;5021232;28;20118;-70
2023/08/28 08:47:58;;;;;;;4.70;2.17;;;;;;;;;;5012424;28;20151;-70
2023/08/28 08:50:46;;;;;;;2.85;1.98;;;;;;;;;;5021996;28;20112;-65
2023/08/28 08:53:40;;;;;;;9.77;2.33;;;;;;;;;;5024682;28;20063;-65
2023/08/28 08:56:27;;;;;;;5.93;2.38;;;;;;;;;;5020913;28;20026;-65
2023/08/28 08:59:12;;;;;;;1.77;1.58;;;;;;;;;;5009979;28;20033;-66
2023/08/28 09:02:00;;;;;;;3.47;1.75;;;;;;;;;;5018020;28;20144;-65
2023/08/28 09:04:46;;;;;;;5.68;2.40;;;;;;;;;;5019454;28;20025;-68
2023/08/28 09:07:31;;;;;;;5.75;1.80;;;;;;;;;;5019332;28;20056;-66
2023/08/28 09:10:17;;;;;;;4.07;1.85;;;;;;;;;;5021605;28;20535;-77
2023/08/28 09:13:04;;;;;;;3.85;1.55;;;;;;;;;;5013053;28;20369;-73
2023/08/28 09:15:50;;;;;;;3.40;2.22;;;;;;;;;;5007121;28;20119;-73
2023/08/28 09:18:37;;;;;;;2.90;1.70;;;;;;;;;;5021938;28;20120;-74
2023/08/28 09:21:22;;;;;;;3.30;1.80;;;;;;;;;;5011242;28;20100;-74
2023/08/28 09:24:09;;;;;;;2.67;1.40;;;;;;;;;;5025419;28;20064;-71
2023/08/28 09:26:54;;;;;;;4.82;1.63;;;;;;;;;;5017970;28;20037;-70
2023/08/28 09:29:39;;;;;;;2.55;1.58;;;;;;;;;;5020812;28;20045;-72
2023/08/28 09:32:28;;;;;;;4.00;1.88;;;;;;;;;;5006286;28;20366;-72
2023/08/28 09:35:14;;;;;;;3.40;1.90;;;;;;;;;;5015681;28;20662;-73
2023/08/28 09:38:01;;;;;;;2.50;1.52;;;;;;;;;;5015586;28;20038;-70
2023/08/28 09:40:46;;;;;;;3.47;2.05;;;;;;;;;;5019588;28;20500;-69
2023/08/28 09:43:35;;;;;;;2.85;1.90;;;;;;;;;;5043033;28;20068;-76
2023/08/28 09:46:20;;;;;;;2.67;1.77;;;;;;;;;;5021833;28;20041;-67
2023/08/28 09:49:08;;;;;;;5.93;2.08;;;;;;;;;;5017803;28;20167;-68
2023/08/28 09:51:56;;;;;;;5.47;1.80;;;;;;;;;;5019978;28;20126;-68
2023/08/28 09:54:42;;;;;;;4.28;1.90;;;;;;;;;;5038916;28;20063;-71
2023/08/28 09:57:27;;;;;;;3.72;2.00;;;;;;;;;;5018877;28;20037;-69
2023/08/28 10:00:13;;;;;;;3.58;1.60;;;;;;;;;;5012967;28;20379;-69
2023/08/28 10:02:58;;;;;;;3.70;1.73;;;;;;;;;;5019904;28;20142;-63
2023/08/28 10:05:44;;;;;;;2.88;1.83;;;;;;;;;;5018121;28;20036;-62
2023/08/28 10:08:31;;;;;;;2.80;1.98;;;;;;;;;;5012640;28;20065;-65
2023/08/28 10:11:17;;;;;;;9.95;5.18;;;;;;;;;;5008087;28;20475;-63
2023/08/28 10:14:03;;;;;;;3.33;2.03;;;;;;;;;;5018916;28;20132;-62
2023/08/28 10:16:52;;;;;;;7.60;2.78;;;;;;;;;;4983783;28;20482;-63
2023/08/28 10:19:41;;;;;;;8.95;2.28;;;;;;;;;;5011552;28;20037;-74
2023/08/28 10:22:27;;;;;;;3.10;2.10;;;;;;;;;;5004060;28;20044;-76
2023/08/28 10:25:13;;;;;;;3.05;1.75;;;;;;;;;;5006811;28;20033;-76
2023/08/28 10:27:58;;;;;;;2.45;1.65;;;;;;;;;;5013071;28;20034;-74
2023/08/28 10:30:45;;;;;;;4.88;1.63;;;;;;;;;;5009559;28;20031;-75
2023/08/28 10:33:32;;;;;;;2.80;1.42;;;;;;;;;;5029728;28;20470;-76
2023/08/28 10:36:17;;;;;;;2.95;1.65;;;;;;;;;;5022556;28;20034;-73
2023/08/28 10:39:03;;;;;;;3.35;1.73;;;;;;;;;;5038742;28;20530;-69
2023/08/28 10:41:48;;;;;;;3.22;1.63;;;;;;;;;;5024849;28;20029;-71
2023/08/28 10:44:34;;;;;;;6.35;2.20;;;;;;;;;;5013197;28;20037;-69
2023/08/28 10:47:19;;;;;;;3.75;1.73;;;;;;;;;;5022488;28;20037;-71
2023/08/28 10:50:05;;;;;;;2.75;1.75;;;;;;;;;;5013547;28;20098;-70
2023/08/28 10:52:57;;;;;;;1.60;1.27;;;;;;;;;;5015696;28;20047;-71
2023/08/28 10:55:52;;;;;;;3.17;1.30;;;;;;;;;;5040913;28;20116;-77
2023/08/28 10:58:38;;;;;;;1.88;1.40;;;;;;;;;;4998897;28;20452;-72
2023/08/28 11:01:23;;;;;;;3.78;1.50;;;;;;;;;;5014656;28;20522;-70
2023/08/28 11:04:15;;;;;;;2.40;1.52;;;;;;;;;;5015798;28;20051;-70
2023/08/28 11:07:00;;;;;;;2.90;1.25;;;;;;;;;;5035255;28;20029;-70
2023/08/28 11:09:46;;;;;;;2.53;1.23;;;;;;;;;;5015411;28;20503;-69
2023/08/28 11:12:41;;;;;;;2.53;1.40;;;;;;;;;;5014341;28;20026;-68
2023/08/28 11:15:27;;;;;;;1.83;1.30;;;;;;;;;;5018084;28;20041;-76
2023/08/28 11:18:28;;;;;;;6.75;1.60;;;;;;;;;;5020816;28;20192;-80
2023/08/28 11:21:14;;;;;;;1.90;1.27;;;;;;;;;;5016012;28;20034;-84
2023/08/28 11:23:59;;;;;;;2.15;1.30;;;;;;;;;;5010678;28;20539;-84
2023/08/28 11:26:44;;;;;;;1.42;1.23;;;;;;;;;;5011402;28;20049;-78
2023/08/28 11:29:32;;;;;;;2.53;1.50;;;;;;;;;;5022347;28;20028;-79
2023/08/28 11:32:18;;;;;;;4.05;1.17;;;;;;;;;;5014550;28;20042;-77
2023/08/28 11:35:04;;;;;;;3.67;2.05;;;;;;;;;;5014209;28;20025;-77
2023/08/28 11:37:50;;;;;;;2.13;1.67;;;;;;;;;;5017729;28;20108;-75
2023/08/28 11:40:36;;;;;;;1.77;1.30;;;;;;;;;;5013729;28;20150;-79
2023/08/28 11:43:22;;;;;;;2.85;1.30;;;;;;;;;;5019933;28;20029;-76
2023/08/28 11:46:08;;;;;;;2.00;1.40;;;;;;;;;;5015367;28;20175;-76
2023/08/28 11:48:53;;;;;;;2.25;1.55;;;;;;;;;;5020062;28;20032;-74
2023/08/28 11:51:38;;;;;;;1.35;1.25;;;;;;;;;;5013773;28;20041;-74
2023/08/28 11:54:26;;;;;;;1.48;1.25;;;;;;;;;;5014139;28;20033;-74
2023/08/28 11:57:11;;;;;;;3.15;1.60;;;;;;;;;;5001254;28;20025;-74
2023/08/28 11:59:57;;;;;;;1.75;1.50;;;;;;;;;;5035068;28;20036;-74
2023/08/28 12:02:44;;;;;;;3.53;1.40;;;;;;;;;;5022705;28;20172;-79
2023/08/28 12:05:29;;;;;;;3.67;1.38;;;;;;;;;;5039526;28;20052;-76
2023/08/28 12:08:15;;;;;;;1.52;1.15;;;;;;;;;;5018236;28;20453;-75
2023/08/28 12:11:00;;;;;;;3.80;1.42;;;;;;;;;;5014595;28;20086;-64
2023/08/28 12:13:46;;;;;;;1.40;1.13;;;;;;;;;;5013634;28;20025;-71
2023/08/28 12:16:31;;;;;;;2.78;1.30;;;;;;;;;;5014144;28;20024;-72
2023/08/28 12:19:20;;;;;;;4.50;1.50;;;;;;;;;;5040165;28;20476;-69
2023/08/28 12:22:06;;;;;;;1.90;1.55;;;;;;;;;;5012884;28;20046;-69
2023/08/28 12:24:52;;;;;;;2.28;1.30;;;;;;;;;;5014438;28;20116;-71
2023/08/28 12:27:38;;;;;;;1.30;1.10;;;;;;;;;;5023828;28;20025;-74
2023/08/28 12:30:23;;;;;;;2.70;1.10;;;;;;;;;;5025331;28;20076;-65
2023/08/28 12:33:08;;;;;;;2.78;1.55;;;;;;;;;;5020166;28;20021;-74
2023/08/28 12:35:54;;;;;;;2.55;1.20;;;;;;;;;;5043756;28;20025;-74
2023/08/28 12:38:46;;;;;;;2.05;1.52;;;;;;;;;;5019747;28;20045;-76
2023/08/28 12:41:48;;;;;;;2.15;1.38;;;;;;;;;;5026190;28;20531;-76
2023/08/28 12:44:33;;;;;;;1.30;1.20;;;;;;;;;;5026891;28;20366;-72
2023/08/28 12:47:21;;;;;;;4.85;1.10;;;;;;;;;;5020003;28;20035;-67
2023/08/28 12:50:08;;;;;;;1.75;1.10;;;;;;;;;;5022507;28;20033;-67
2023/08/28 12:52:53;;;;;;;1.38;1.17;;;;;;;;;;5019115;28;20096;-68
2023/08/28 12:55:39;;;;;;;3.40;1.20;;;;;;;;;;5024277;28;20401;-67
2023/08/28 12:58:24;;;;;;;2.97;1.27;;;;;;;;;;5021030;28;20041;-66
2023/08/28 13:01:09;;;;;;;1.70;1.30;;;;;;;;;;5020021;28;20563;-67
2023/08/28 13:03:54;;;;;;;4.45;1.40;;;;;;;;;;5042749;28;20377;-68
2023/08/28 13:06:40;;;;;;;1.65;1.20;;;;;;;;;;5023970;28;20083;-62
2023/08/28 13:09:25;;;;;;;3.85;1.58;;;;;;;;;;5017716;28;20046;-85
2023/08/28 13:12:10;;;;;;;2.78;1.30;;;;;;;;;;5020314;28;20077;-85
2023/08/28 13:14:55;;;;;;;2.63;1.60;;;;;;;;;;5022812;28;20099;-88
2023/08/28 13:17:41;;;;;;;4.80;1.27;;;;;;;;;;5022733;28;20026;-86
2023/08/28 13:20:27;;;;;;;1.20;1.10;;;;;;;;;;5019119;28;20025;-84
2023/08/28 13:23:13;;;;;;;3.90;1.40;;;;;;;;;;5026587;28;20112;-61
2023/08/28 13:25:58;;;;;;;3.03;1.23;;;;;;;;;;5019111;28;20065;-68
2023/08/28 13:28:44;;;;;;;1.45;1.10;;;;;;;;;;5025529;28;20110;-70
2023/08/28 13:31:31;;;;;;;4.78;1.85;;;;;;;;;;5003288;28;20489;-70
2023/08/28 13:34:16;;;;;;;2.85;1.17;;;;;;;;;;5024248;28;20044;-71
2023/08/28 13:37:05;;;;;;;2.03;1.15;;;;;;;;;;5021602;28;20033;-70
2023/08/28 13:39:50;;;;;;;1.53;1.17;;;;;;;;;;5016096;28;20494;-69
2023/08/28 13:42:35;;;;;;;2.65;1.17;;;;;;;;;;5020140;28;20384;-59
2023/08/28 13:45:20;;;;;;;1.23;1.13;;;;;;;;;;5014770;28;20041;-61
2023/08/28 13:48:06;;;;;;;1.38;1.00;;;;;;;;;;5029019;28;20464;-61
2023/08/28 13:50:51;;;;;;;3.03;1.15;;;;;;;;;;5015025;28;20064;-61
2023/08/28 13:53:37;;;;;;;2.45;1.10;;;;;;;;;;5024375;28;20029;-60
2023/08/28 13:56:22;;;;;;;4.22;1.17;;;;;;;;;;5020097;28;20049;-61
2023/08/28 13:59:07;;;;;;;3.00;1.40;;;;;;;;;;5019770;28;20025;-62
2023/08/28 14:01:52;;;;;;;1.52;1.20;;;;;;;;;;5017848;28;20608;-68
2023/08/28 14:04:38;;;;;;;1.30;1.00;;;;;;;;;;5040236;28;20037;-63
2023/08/28 14:07:23;;;;;;;1.70;1.02;;;;;;;;;;5018183;28;20041;-64
2023/08/28 14:10:09;;;;;;;2.28;1.15;;;;;;;;;;5040081;28;20021;-64
2023/08/28 14:12:54;;;;;;;2.47;1.20;;;;;;;;;;5012291;28;20133;-61
2023/08/28 14:15:39;;;;;;;1.85;1.00;;;;;;;;;;5005223;28;20037;-60
2023/08/28 14:18:24;;;;;;;2.63;1.08;;;;;;;;;;5016281;28;20033;-63
2023/08/28 14:21:10;;;;;;;1.10;0.95;;;;;;;;;;5018676;28;20109;-66
2023/08/28 14:23:55;;;;;;;1.35;1.00;;;;;;;;;;5005444;28;20041;-63
2023/08/28 14:26:41;;;;;;;1.20;1.00;;;;;;;;;;5014284;28;20033;-62
2023/08/28 14:29:26;;;;;;;1.63;1.13;;;;;;;;;;5014238;28;20041;-66
2023/08/28 14:32:13;;;;;;;2.05;1.15;;;;;;;;;;5016163;28;20033;-64
2023/08/28 14:34:59;;;;;;;2.53;1.50;;;;;;;;;;5008645;28;20041;-63
2023/08/28 14:37:46;;;;;;;3.92;1.17;;;;;;;;;;5015999;28;20033;-76
2023/08/28 14:40:31;;;;;;;1.00;0.90;;;;;;;;;;5014464;28;20044;-74
2023/08/28 14:43:17;;;;;;;1.52;1.13;;;;;;;;;;5022762;28;20025;-74
2023/08/28 14:46:02;;;;;;;1.65;1.15;;;;;;;;;;5015964;28;20382;-73
2023/08/28 14:48:49;;;;;;;1.88;1.20;;;;;;;;;;5020724;28;20036;-75
2023/08/28 14:51:34;;;;;;;1.92;1.10;;;;;;;;;;5022267;28;20480;-73
2023/08/28 14:54:19;;;;;;;1.83;1.10;;;;;;;;;;5013797;28;20404;-73
2023/08/28 14:57:04;;;;;;;1.20;0.82;;;;;;;;;;5010435;28;20087;-74
2023/08/28 14:59:50;;;;;;;0.80;0.80;;;;;;;;;;5006841;28;20511;-73
2023/08/28 15:02:35;;;;;;;2.05;0.98;;;;;;;;;;5041991;28;20029;-68
2023/08/28 15:05:20;;;;;;;1.15;0.90;;;;;;;;;;5017758;28;20401;-68
2023/08/28 15:08:05;;;;;;;1.33;1.00;;;;;;;;;;5016310;28;20037;-70
2023/08/28 15:10:51;;;;;;;1.60;0.95;;;;;;;;;;5015935;28;20041;-70
2023/08/28 15:13:36;;;;;;;1.13;0.90;;;;;;;;;;5009869;28;20030;-68
2023/08/28 15:16:21;;;;;;;2.47;1.33;;;;;;;;;;5022767;28;20110;-68
2023/08/28 15:19:06;;;;;;;1.50;1.38;;;;;;;;;;5011817;28;20041;-70
2023/08/28 15:21:52;;;;;;;4.90;1.20;;;;;;;;;;5013274;28;20034;-74
2023/08/28 15:24:37;;;;;;;2.17;1.25;;;;;;;;;;5012297;28;20079;-71
2023/08/28 15:27:22;;;;;;;6.05;1.30;;;;;;;;;;5039769;28;20033;-69
2023/08/28 15:30:08;;;;;;;3.13;1.20;;;;;;;;;;5019249;28;20033;-70
2023/08/28 15:32:53;;;;;;;3.90;1.27;;;;;;;;;;5011103;28;20029;-74
2023/08/28 15:35:39;;;;;;;2.75;1.23;;;;;;;;;;5018916;28;20379;-71
2023/08/28 15:38:24;;;;;;;2.80;1.40;;;;;;;;;;5012628;28;20049;-71
2023/08/28 15:41:09;;;;;;;1.85;1.17;;;;;;;;;;5014904;28;20361;-70
2023/08/28 15:43:54;;;;;;;2.33;0.90;;;;;;;;;;5015925;28;20041;-69
2023/08/28 15:46:40;;;;;;;2.47;1.10;;;;;;;;;;5017081;28;20064;-70
2023/08/28 15:49:25;;;;;;;1.42;1.33;;;;;;;;;;5014974;28;20424;-70
2023/08/28 15:52:12;;;;;;;1.73;1.00;;;;;;;;;;5021048;28;20037;-66
2023/08/28 15:54:57;;;;;;;2.10;1.05;;;;;;;;;;5009784;28;20045;-69
2023/08/28 15:57:43;;;;;;;1.42;1.00;;;;;;;;;;5017270;28;20097;-69
2023/08/28 16:00:38;;;;;;;2.67;1.05;;;;;;;;;;5010681;28;20424;-68
2023/08/28 16:03:23;;;;;;;1.10;1.00;;;;;;;;;;5019987;28;20148;-69
2023/08/28 16:06:08;;;;;;;2.25;1.00;;;;;;;;;;5015181;28;20029;-68
2023/08/28 16:08:53;;;;;;;3.03;1.52;;;;;;;;;;5009660;28;20089;-69
2023/08/28 16:11:46;;;;;;;2.50;1.15;;;;;;;;;;5039275;28;21219;-67
2023/08/28 16:14:31;;;;;;;2.63;1.00;;;;;;;;;;5007375;28;20237;-68
2023/08/28 16:17:16;;;;;;;3.08;1.10;;;;;;;;;;5017119;28;20038;-68
2023/08/28 16:20:02;;;;;;;1.65;1.10;;;;;;;;;;5016982;28;20032;-66
2023/08/28 16:22:47;;;;;;;2.88;1.75;;;;;;;;;;5014186;28;20358;-68
2023/08/28 16:25:32;;;;;;;2.35;1.10;;;;;;;;;;5036994;28;20033;-68
2023/08/28 16:28:18;;;;;;;4.00;1.15;;;;;;;;;;5015745;28;20039;-73
2023/08/28 16:31:05;;;;;;;2.45;1.33;;;;;;;;;;5035411;28;20056;-68
2023/08/28 16:33:50;;;;;;;2.05;1.20;;;;;;;;;;5005387;28;20030;-72
2023/08/28 16:36:35;;;;;;;2.83;1.20;;;;;;;;;;5016106;28;20026;-68
2023/08/28 16:39:20;;;;;;;1.15;1.05;;;;;;;;;;5014349;28;20040;-68